Time;durP1;ratioP1;P1;durP2;ratioP2;P2;SDS_P1;SDS_P2;PMS_P1;PMS_P2;Temp;Humidity;BMP_temperature;BMP_pressure;BME280_temperature;BME280_humidity;BME280_pressure;Samples;Min_cycle;Max_cycle;Signal;HPM_P1;HPM_P2
2021/10/05 00:01:15;;;;;;;14.82;6.55;;;;;;;;;;4957821;29;20023;-81
2021/10/05 00:03:42;;;;;;;11.80;6.22;;;;;;;;;;4939937;29;20038;-81
2021/10/05 00:06:08;;;;;;;11.85;6.72;;;;;;;;;;4957201;29;20023;-86
2021/10/05 00:08:35;;;;;;;14.25;6.53;;;;;;;;;;4957862;29;20035;-82
2021/10/05 00:11:01;;;;;;;11.80;7.20;;;;;;;;;;4957558;29;20022;-81
2021/10/05 00:13:27;;;;;;;13.80;7.57;;;;;;;;;;4957032;29;20035;-81
2021/10/05 00:15:54;;;;;;;11.32;6.05;;;;;;;;;;4956945;29;20034;-81
2021/10/05 00:18:21;;;;;;;14.27;6.60;;;;;;;;;;4939843;29;20093;-81
2021/10/05 00:20:50;;;;;;;12.85;6.50;;;;;;;;;;4956818;29;20076;-81
2021/10/05 00:23:16;;;;;;;12.90;6.68;;;;;;;;;;4939650;29;20488;-81
2021/10/05 00:25:43;;;;;;;11.75;6.32;;;;;;;;;;4939694;29;20028;-81
2021/10/05 00:28:09;;;;;;;12.27;6.35;;;;;;;;;;4957188;29;20031;-80
2021/10/05 00:30:36;;;;;;;13.23;6.75;;;;;;;;;;4956534;29;20404;-81
2021/10/05 00:33:03;;;;;;;11.93;5.93;;;;;;;;;;4956691;29;20035;-81
2021/10/05 00:35:29;;;;;;;14.10;7.03;;;;;;;;;;4956607;29;20019;-81
2021/10/05 00:37:56;;;;;;;14.35;6.30;;;;;;;;;;4956418;29;20040;-82
2021/10/05 00:40:22;;;;;;;11.40;6.05;;;;;;;;;;4957087;29;20019;-80
2021/10/05 00:42:49;;;;;;;12.98;7.68;;;;;;;;;;4939543;29;20043;-81
2021/10/05 00:45:15;;;;;;;12.70;7.13;;;;;;;;;;4939308;29;20397;-81
2021/10/05 00:47:41;;;;;;;12.48;6.75;;;;;;;;;;4956759;29;20034;-93
2021/10/05 00:50:08;;;;;;;16.85;6.90;;;;;;;;;;4939110;29;20498;-81
2021/10/05 00:52:36;;;;;;;15.32;7.38;;;;;;;;;;4956825;29;20029;-81
2021/10/05 00:55:04;;;;;;;12.75;7.00;;;;;;;;;;4956236;29;20027;-82
2021/10/05 00:57:30;;;;;;;9.40;5.90;;;;;;;;;;4938957;29;20035;-81
2021/10/05 00:59:57;;;;;;;11.30;6.32;;;;;;;;;;4938403;29;20074;-81
2021/10/05 01:02:24;;;;;;;11.63;6.45;;;;;;;;;;4939017;29;20038;-92
2021/10/05 01:04:50;;;;;;;10.98;6.30;;;;;;;;;;4939033;29;20442;-81
2021/10/05 01:07:17;;;;;;;10.30;6.10;;;;;;;;;;4938828;29;20123;-91
2021/10/05 01:09:47;;;;;;;9.63;5.78;;;;;;;;;;4938848;29;20537;-81
2021/10/05 01:12:14;;;;;;;12.88;5.60;;;;;;;;;;4955982;29;20031;-82
2021/10/05 01:14:40;;;;;;;11.48;6.38;;;;;;;;;;4955911;29;20030;-81
2021/10/05 01:17:07;;;;;;;13.07;6.97;;;;;;;;;;4955966;29;20032;-81
2021/10/05 01:19:33;;;;;;;11.68;5.88;;;;;;;;;;4955899;29;20551;-81
2021/10/05 01:22:00;;;;;;;14.73;6.50;;;;;;;;;;4955865;29;20082;-81
2021/10/05 01:24:27;;;;;;;10.52;6.43;;;;;;;;;;4955873;29;20027;-94
2021/10/05 01:26:55;;;;;;;12.63;6.60;;;;;;;;;;4938588;29;20114;-92
2021/10/05 01:29:23;;;;;;;10.98;6.30;;;;;;;;;;4938365;29;20605;-81
2021/10/05 01:31:51;;;;;;;12.25;6.20;;;;;;;;;;4955615;29;20492;-82
2021/10/05 01:34:20;;;;;;;16.55;6.18;;;;;;;;;;4938583;29;20481;-81
2021/10/05 01:36:46;;;;;;;15.80;6.38;;;;;;;;;;4938355;29;20068;-81
2021/10/05 01:39:23;;;;;;;12.75;6.30;;;;;;;;;;4938278;29;20035;-81
2021/10/05 01:41:51;;;;;;;11.27;6.03;;;;;;;;;;4938277;29;20032;-81
2021/10/05 01:44:17;;;;;;;14.13;6.78;;;;;;;;;;4955945;29;20023;-81
2021/10/05 01:46:43;;;;;;;11.38;6.95;;;;;;;;;;4955552;29;20039;-93
2021/10/05 01:49:13;;;;;;;14.10;6.65;;;;;;;;;;4938294;29;20023;-82
2021/10/05 01:51:40;;;;;;;13.23;6.90;;;;;;;;;;4939474;29;20032;-82
2021/10/05 01:54:06;;;;;;;10.43;5.82;;;;;;;;;;4938230;29;20027;-81
2021/10/05 01:56:32;;;;;;;12.85;6.50;;;;;;;;;;4938297;29;20023;-81
2021/10/05 01:58:59;;;;;;;11.68;6.63;;;;;;;;;;4938143;29;20099;-81
2021/10/05 02:01:25;;;;;;;12.60;6.18;;;;;;;;;;4955393;29;20026;-81
2021/10/05 02:03:52;;;;;;;11.90;6.75;;;;;;;;;;4955830;29;20035;-91
2021/10/05 02:06:18;;;;;;;12.77;6.93;;;;;;;;;;4955614;29;20031;-81
2021/10/05 02:08:44;;;;;;;10.00;5.95;;;;;;;;;;4955268;29;20031;-82
2021/10/05 02:11:11;;;;;;;13.48;6.50;;;;;;;;;;4958576;28;20495;-82
2021/10/05 02:13:39;;;;;;;14.27;6.75;;;;;;;;;;4942031;29;20035;-81
2021/10/05 02:16:06;;;;;;;12.05;6.55;;;;;;;;;;4959218;29;20020;-94
2021/10/05 02:18:33;;;;;;;15.32;7.10;;;;;;;;;;4959236;29;20035;-93
2021/10/05 02:20:59;;;;;;;11.90;7.18;;;;;;;;;;4958999;29;20114;-82
2021/10/05 02:26:10;;;;;;;14.38;6.97;;;;;;;;;;4959287;29;20122;-82
2021/10/05 02:28:37;;;;;;;12.98;6.55;;;;;;;;;;4959041;29;20059;-81
2021/10/05 02:31:03;;;;;;;12.20;6.15;;;;;;;;;;4959224;29;20412;-81
2021/10/05 02:33:30;;;;;;;15.73;6.50;;;;;;;;;;4958811;29;20027;-92
2021/10/05 02:35:56;;;;;;;14.35;7.25;;;;;;;;;;4941502;29;20038;-81
2021/10/05 02:38:23;;;;;;;10.93;5.40;;;;;;;;;;4941448;29;20042;-82
2021/10/05 02:40:49;;;;;;;9.57;5.68;;;;;;;;;;4958727;29;20035;-81
2021/10/05 02:43:16;;;;;;;11.43;6.70;;;;;;;;;;4958585;29;20032;-82
2021/10/05 02:45:42;;;;;;;10.48;5.57;;;;;;;;;;4958567;29;20058;-82
2021/10/05 02:48:08;;;;;;;11.63;6.47;;;;;;;;;;4959145;29;20027;-81
2021/10/05 02:50:35;;;;;;;12.07;7.47;;;;;;;;;;4958443;29;20038;-81
2021/10/05 02:53:01;;;;;;;12.00;6.32;;;;;;;;;;4941158;29;20034;-82
2021/10/05 02:55:28;;;;;;;11.68;6.63;;;;;;;;;;4958601;29;20074;-92
2021/10/05 02:57:54;;;;;;;12.50;6.53;;;;;;;;;;4941448;29;20083;-81
2021/10/05 03:00:20;;;;;;;11.63;6.45;;;;;;;;;;4958334;29;20033;-81
2021/10/05 03:02:47;;;;;;;10.75;6.32;;;;;;;;;;4958326;29;20038;-82
2021/10/05 03:05:13;;;;;;;11.32;6.13;;;;;;;;;;4941020;29;20131;-81
2021/10/05 03:07:39;;;;;;;12.88;6.35;;;;;;;;;;4958154;29;20489;-93
2021/10/05 03:10:06;;;;;;;15.10;6.18;;;;;;;;;;4941066;29;20082;-94
2021/10/05 03:12:32;;;;;;;11.73;6.05;;;;;;;;;;4958235;29;20023;-82
2021/10/05 03:14:59;;;;;;;11.50;6.85;;;;;;;;;;4958614;29;20039;-82
2021/10/05 03:17:25;;;;;;;12.27;6.63;;;;;;;;;;4940921;29;20506;-83
2021/10/05 03:19:51;;;;;;;11.90;6.35;;;;;;;;;;4941114;29;20476;-81
2021/10/05 03:22:17;;;;;;;10.57;5.57;;;;;;;;;;4957316;28;20106;-81
2021/10/05 03:24:44;;;;;;;12.20;6.00;;;;;;;;;;4957874;29;20046;-81
2021/10/05 03:27:10;;;;;;;10.68;6.32;;;;;;;;;;4958364;29;20523;-82
2021/10/05 03:29:38;;;;;;;12.93;7.03;;;;;;;;;;4957738;29;20059;-81
2021/10/05 03:32:04;;;;;;;14.02;6.22;;;;;;;;;;4957818;29;20024;-82
2021/10/05 03:34:31;;;;;;;11.00;5.95;;;;;;;;;;4957616;29;20032;-82
2021/10/05 03:36:57;;;;;;;10.48;6.45;;;;;;;;;;4958204;29;20027;-82
2021/10/05 03:39:23;;;;;;;11.85;6.57;;;;;;;;;;4958081;29;20483;-80
2021/10/05 03:41:49;;;;;;;12.80;6.28;;;;;;;;;;4940519;29;20377;-80
2021/10/05 03:44:16;;;;;;;14.00;6.38;;;;;;;;;;4940303;29;20465;-81
2021/10/05 03:46:42;;;;;;;12.52;6.28;;;;;;;;;;4940427;29;20046;-80
2021/10/05 03:49:08;;;;;;;10.68;5.97;;;;;;;;;;4940458;29;20087;-80
2021/10/05 03:51:34;;;;;;;12.40;6.50;;;;;;;;;;4940684;29;20030;-81
2021/10/05 03:54:00;;;;;;;9.25;5.60;;;;;;;;;;4940264;29;20389;-79
2021/10/05 03:56:26;;;;;;;12.25;6.10;;;;;;;;;;4957483;29;20078;-81
2021/10/05 03:58:52;;;;;;;11.80;6.85;;;;;;;;;;4940241;29;20039;-93
2021/10/05 04:01:19;;;;;;;12.65;6.40;;;;;;;;;;4940170;29;20054;-82
2021/10/05 04:03:45;;;;;;;11.05;6.13;;;;;;;;;;4940076;29;20090;-82
2021/10/05 04:06:12;;;;;;;17.58;6.55;;;;;;;;;;4958003;29;20444;-82
2021/10/05 04:08:38;;;;;;;15.90;7.45;;;;;;;;;;4940314;29;20548;-82
2021/10/05 04:11:08;;;;;;;11.32;6.72;;;;;;;;;;4939896;29;20082;-82
2021/10/05 04:13:35;;;;;;;10.95;6.28;;;;;;;;;;4939966;29;20042;-82
2021/10/05 04:16:01;;;;;;;13.35;6.95;;;;;;;;;;4939876;29;20118;-82
2021/10/05 04:18:27;;;;;;;14.35;6.40;;;;;;;;;;4956947;29;20035;-82
2021/10/05 04:20:54;;;;;;;13.10;6.63;;;;;;;;;;4956869;29;20392;-82
2021/10/05 04:23:20;;;;;;;10.40;5.97;;;;;;;;;;4939751;29;20070;-81
2021/10/05 04:25:46;;;;;;;15.10;6.80;;;;;;;;;;4957498;29;20133;-95
2021/10/05 04:28:13;;;;;;;12.07;6.18;;;;;;;;;;4939787;29;20031;-90
2021/10/05 04:30:39;;;;;;;15.05;7.00;;;;;;;;;;4939348;29;20178;-87
2021/10/05 04:33:05;;;;;;;17.15;7.07;;;;;;;;;;4956214;28;20020;-79
2021/10/05 04:35:31;;;;;;;13.73;7.18;;;;;;;;;;4939192;29;20093;-81
2021/10/05 04:37:57;;;;;;;13.00;6.70;;;;;;;;;;4938955;29;20042;-81
2021/10/05 04:40:24;;;;;;;17.60;7.13;;;;;;;;;;4939257;29;20122;-82
2021/10/05 04:42:51;;;;;;;12.70;6.53;;;;;;;;;;4956933;29;20461;-81
2021/10/05 04:45:17;;;;;;;12.45;6.72;;;;;;;;;;4956827;29;20024;-82
2021/10/05 04:47:43;;;;;;;14.90;6.18;;;;;;;;;;4937611;29;20504;-79
2021/10/05 04:50:10;;;;;;;11.63;6.45;;;;;;;;;;4937537;29;20476;-80
2021/10/05 04:52:36;;;;;;;14.00;6.57;;;;;;;;;;4956246;29;20034;-80
2021/10/05 04:55:11;;;;;;;14.38;6.78;;;;;;;;;;5111752;27;20445;-82
2021/10/05 04:57:37;;;;;;;13.38;6.72;;;;;;;;;;5109965;28;20037;-79
2021/10/05 05:00:04;;;;;;;11.93;6.35;;;;;;;;;;5110174;28;20062;-83
2021/10/05 05:02:30;;;;;;;16.25;7.97;;;;;;;;;;5109993;28;20081;-81
2021/10/05 05:04:56;;;;;;;19.63;7.85;;;;;;;;;;5110012;28;20453;-82
2021/10/05 05:07:22;;;;;;;18.08;7.38;;;;;;;;;;5110744;28;20027;-81
2021/10/05 05:09:49;;;;;;;19.10;7.10;;;;;;;;;;5109910;28;20097;-81
2021/10/05 05:12:15;;;;;;;14.55;7.78;;;;;;;;;;5109779;28;20028;-81
2021/10/05 05:14:41;;;;;;;13.32;6.88;;;;;;;;;;5109653;28;20086;-81
2021/10/05 05:17:07;;;;;;;16.80;7.03;;;;;;;;;;5109529;28;20033;-82
2021/10/05 05:19:33;;;;;;;15.45;7.60;;;;;;;;;;5109552;28;20023;-83
2021/10/05 05:22:00;;;;;;;19.05;8.05;;;;;;;;;;5112085;28;20023;-91
2021/10/05 05:24:27;;;;;;;19.55;9.23;;;;;;;;;;5109764;28;20400;-82
2021/10/05 05:26:53;;;;;;;15.18;7.50;;;;;;;;;;5110894;28;20385;-82
2021/10/05 05:29:19;;;;;;;14.15;6.75;;;;;;;;;;5110619;28;20034;-82
2021/10/05 05:31:47;;;;;;;14.98;8.02;;;;;;;;;;5110745;28;20020;-82
2021/10/05 05:34:14;;;;;;;21.15;7.57;;;;;;;;;;5109300;28;20042;-79
2021/10/05 05:36:40;;;;;;;12.90;7.22;;;;;;;;;;5110500;28;20027;-79
2021/10/05 05:39:06;;;;;;;18.17;8.25;;;;;;;;;;5110470;28;20404;-79
2021/10/05 05:41:32;;;;;;;14.52;8.45;;;;;;;;;;5109056;28;20030;-81
2021/10/05 05:43:58;;;;;;;15.10;7.82;;;;;;;;;;5111245;28;20477;-79
2021/10/05 05:46:24;;;;;;;17.10;8.10;;;;;;;;;;5109411;28;20016;-80
2021/10/05 05:48:50;;;;;;;14.52;8.55;;;;;;;;;;5110145;28;20377;-79
2021/10/05 05:51:16;;;;;;;19.45;7.65;;;;;;;;;;5108956;28;20028;-81
2021/10/05 05:53:43;;;;;;;14.90;7.35;;;;;;;;;;5108541;28;20050;-80
2021/10/05 05:56:09;;;;;;;15.43;7.85;;;;;;;;;;5108875;28;20115;-80
2021/10/05 05:58:36;;;;;;;19.25;8.98;;;;;;;;;;5110159;28;20032;-80
2021/10/05 06:01:02;;;;;;;15.02;7.55;;;;;;;;;;5108773;28;20440;-80
2021/10/05 06:03:28;;;;;;;16.50;8.88;;;;;;;;;;5110032;28;20033;-81
2021/10/05 06:05:54;;;;;;;14.68;8.00;;;;;;;;;;5098767;28;20039;-87
2021/10/05 06:08:21;;;;;;;14.00;8.65;;;;;;;;;;5095844;28;20052;-90
2021/10/05 06:10:47;;;;;;;15.65;7.82;;;;;;;;;;5095107;28;20489;-80
2021/10/05 06:13:13;;;;;;;15.88;7.75;;;;;;;;;;5095887;28;20032;-81
2021/10/05 06:15:40;;;;;;;11.93;6.70;;;;;;;;;;5095620;28;20495;-83
2021/10/05 06:18:06;;;;;;;11.40;5.95;;;;;;;;;;5095294;28;20027;-83
2021/10/05 06:20:32;;;;;;;6.53;4.15;;;;;;;;;;5095155;28;20059;-92
2021/10/05 06:22:58;;;;;;;10.98;4.63;;;;;;;;;;5095146;28;20028;-84
2021/10/05 06:25:26;;;;;;;11.52;4.50;;;;;;;;;;5097962;28;20115;-85
2021/10/05 06:27:53;;;;;;;11.43;4.53;;;;;;;;;;5095392;28;20028;-81
2021/10/05 06:30:20;;;;;;;8.93;4.60;;;;;;;;;;5095986;28;20024;-83
2021/10/05 06:32:50;;;;;;;12.20;5.30;;;;;;;;;;5094796;28;20028;-81
2021/10/05 06:35:16;;;;;;;9.13;5.30;;;;;;;;;;5095087;28;20035;-87
2021/10/05 06:37:42;;;;;;;9.20;4.70;;;;;;;;;;5095541;28;20036;-92
2021/10/05 06:40:09;;;;;;;9.43;4.75;;;;;;;;;;5095408;28;20031;-86
2021/10/05 06:42:38;;;;;;;12.40;5.10;;;;;;;;;;5094985;28;20493;-83
2021/10/05 06:45:05;;;;;;;8.82;5.35;;;;;;;;;;5094808;28;20032;-81
2021/10/05 06:47:31;;;;;;;13.93;5.40;;;;;;;;;;5094845;28;20032;-81
2021/10/05 06:49:58;;;;;;;11.27;5.65;;;;;;;;;;5094660;28;20027;-82
2021/10/05 06:52:24;;;;;;;8.52;5.53;;;;;;;;;;5094717;28;20032;-84
2021/10/05 06:54:50;;;;;;;9.98;5.55;;;;;;;;;;5093951;28;20137;-82
2021/10/05 06:57:16;;;;;;;8.88;5.68;;;;;;;;;;5096447;28;20024;-82
2021/10/05 06:59:42;;;;;;;11.95;5.45;;;;;;;;;;5095106;28;20052;-91
2021/10/05 07:02:09;;;;;;;12.07;6.00;;;;;;;;;;5095676;28;20020;-82
2021/10/05 07:04:35;;;;;;;9.15;5.18;;;;;;;;;;5094288;28;20386;-80
2021/10/05 07:07:01;;;;;;;11.77;5.88;;;;;;;;;;5094131;28;20127;-91
2021/10/05 07:09:27;;;;;;;11.88;6.18;;;;;;;;;;5095154;28;20051;-81
2021/10/05 07:11:53;;;;;;;10.70;5.50;;;;;;;;;;5093525;28;20035;-84
2021/10/05 07:14:19;;;;;;;14.05;5.95;;;;;;;;;;5094912;28;20051;-82
2021/10/05 07:16:45;;;;;;;8.63;5.72;;;;;;;;;;5092669;28;20024;-91
2021/10/05 07:19:11;;;;;;;9.63;5.50;;;;;;;;;;5093639;28;20028;-83
2021/10/05 07:21:37;;;;;;;17.75;6.20;;;;;;;;;;5093893;28;20027;-81
2021/10/05 07:24:04;;;;;;;14.50;6.05;;;;;;;;;;5093718;28;20035;-81
2021/10/05 07:26:30;;;;;;;10.05;6.10;;;;;;;;;;5095583;28;20103;-81
2021/10/05 07:28:56;;;;;;;23.20;6.35;;;;;;;;;;5093749;28;20112;-80
2021/10/05 07:31:22;;;;;;;14.23;6.20;;;;;;;;;;5093476;28;20362;-81
2021/10/05 07:33:48;;;;;;;13.07;5.78;;;;;;;;;;5093345;28;20024;-91
2021/10/05 07:36:17;;;;;;;10.98;5.88;;;;;;;;;;5093292;28;20026;-90
2021/10/05 07:38:43;;;;;;;12.32;6.28;;;;;;;;;;5093784;28;20024;-82
2021/10/05 07:41:09;;;;;;;10.10;5.75;;;;;;;;;;5094581;28;20496;-81
2021/10/05 07:43:35;;;;;;;9.73;5.93;;;;;;;;;;5094395;28;20032;-80
2021/10/05 07:46:01;;;;;;;9.75;5.43;;;;;;;;;;5093268;28;20381;-80
2021/10/05 07:48:28;;;;;;;9.90;5.80;;;;;;;;;;5093081;28;20034;-84
2021/10/05 07:50:55;;;;;;;13.02;5.45;;;;;;;;;;5094331;28;20031;-81
2021/10/05 07:53:21;;;;;;;12.00;6.60;;;;;;;;;;5092916;28;20046;-80
2021/10/05 07:55:47;;;;;;;9.88;6.00;;;;;;;;;;5093024;28;20035;-80
2021/10/05 07:58:13;;;;;;;11.90;6.38;;;;;;;;;;5093044;28;20077;-82
2021/10/05 08:00:39;;;;;;;15.45;6.07;;;;;;;;;;5094151;28;20073;-81
2021/10/05 08:03:05;;;;;;;8.85;5.55;;;;;;;;;;5092549;28;20032;-81
2021/10/05 08:05:31;;;;;;;10.00;5.57;;;;;;;;;;5092789;28;20385;-80
2021/10/05 08:07:59;;;;;;;9.45;5.75;;;;;;;;;;5092752;28;20031;-81
2021/10/05 08:10:25;;;;;;;11.77;5.35;;;;;;;;;;5094032;28;20496;-80
2021/10/05 08:12:51;;;;;;;14.85;5.93;;;;;;;;;;5092732;28;20548;-80
2021/10/05 08:15:17;;;;;;;10.45;5.65;;;;;;;;;;5093903;28;20112;-80
2021/10/05 08:17:43;;;;;;;9.63;5.38;;;;;;;;;;5092679;28;20495;-80
2021/10/05 08:20:10;;;;;;;10.70;5.50;;;;;;;;;;5092594;28;20445;-80
2021/10/05 08:22:37;;;;;;;12.25;5.95;;;;;;;;;;5093868;28;20051;-80
2021/10/05 08:25:04;;;;;;;10.40;5.68;;;;;;;;;;5093707;28;20115;-80
2021/10/05 08:27:30;;;;;;;10.52;4.90;;;;;;;;;;5092387;28;20030;-80
2021/10/05 08:29:57;;;;;;;9.90;5.13;;;;;;;;;;5092416;28;20119;-80
2021/10/05 08:32:23;;;;;;;10.82;6.18;;;;;;;;;;5092423;28;20020;-80
2021/10/05 08:34:49;;;;;;;8.05;5.18;;;;;;;;;;5093641;28;20031;-82
2021/10/05 08:37:15;;;;;;;12.57;5.80;;;;;;;;;;5093562;28;20455;-81
2021/10/05 08:39:41;;;;;;;10.10;5.40;;;;;;;;;;5093670;28;20069;-80
2021/10/05 08:42:07;;;;;;;9.48;5.95;;;;;;;;;;5093537;28;20107;-81
2021/10/05 08:44:33;;;;;;;20.08;6.15;;;;;;;;;;5093215;28;20071;-80
2021/10/05 08:47:00;;;;;;;10.23;5.35;;;;;;;;;;5094020;28;20028;-81
2021/10/05 08:49:26;;;;;;;10.27;4.93;;;;;;;;;;5092201;28;20031;-80
2021/10/05 08:51:53;;;;;;;9.32;5.03;;;;;;;;;;5093675;28;20020;-80
2021/10/05 08:54:20;;;;;;;9.90;5.03;;;;;;;;;;5093219;28;20060;-80
2021/10/05 08:56:46;;;;;;;7.90;4.65;;;;;;;;;;5093242;28;20028;-80
2021/10/05 08:59:13;;;;;;;11.25;5.25;;;;;;;;;;5092158;28;20491;-80
2021/10/05 09:01:40;;;;;;;12.57;5.53;;;;;;;;;;5093361;28;20026;-80
2021/10/05 09:04:06;;;;;;;10.57;5.03;;;;;;;;;;5093254;28;20024;-80
2021/10/05 09:06:35;;;;;;;18.45;4.80;;;;;;;;;;5091992;28;20032;-79
2021/10/05 09:09:01;;;;;;;11.68;6.15;;;;;;;;;;5093714;28;20024;-79
2021/10/05 09:11:36;;;;;;;14.98;5.35;;;;;;;;;;5092066;28;20093;-79
2021/10/05 09:14:03;;;;;;;8.05;5.32;;;;;;;;;;5093499;28;20415;-79
2021/10/05 09:16:30;;;;;;;14.90;7.10;;;;;;;;;;5091924;28;20032;-79
2021/10/05 09:18:59;;;;;;;13.07;6.63;;;;;;;;;;5092108;28;20024;-79
2021/10/05 09:21:26;;;;;;;16.38;7.82;;;;;;;;;;5091933;28;20032;-79
2021/10/05 09:24:01;;;;;;;14.65;7.32;;;;;;;;;;5093317;28;20036;-79
2021/10/05 09:26:41;;;;;;;15.38;6.53;;;;;;;;;;5091842;28;20028;-79
2021/10/05 09:29:18;;;;;;;15.55;7.28;;;;;;;;;;5093086;28;20054;-79
2021/10/05 09:31:46;;;;;;;11.75;6.50;;;;;;;;;;5092923;28;20036;-79
2021/10/05 09:34:12;;;;;;;14.02;6.93;;;;;;;;;;5093047;28;20481;-79
2021/10/05 09:36:38;;;;;;;13.18;6.75;;;;;;;;;;5091514;28;20024;-79
2021/10/05 09:39:04;;;;;;;14.18;7.00;;;;;;;;;;5091668;28;20028;-79
2021/10/05 09:41:30;;;;;;;11.20;6.38;;;;;;;;;;5094654;28;20380;-80
2021/10/05 09:44:03;;;;;;;18.63;8.50;;;;;;;;;;5096139;28;20066;-87
2021/10/05 09:46:32;;;;;;;14.68;7.10;;;;;;;;;;5097307;28;20031;-82
2021/10/05 09:49:03;;;;;;;16.38;7.00;;;;;;;;;;5097321;28;20024;-89
2021/10/05 09:51:29;;;;;;;11.15;6.63;;;;;;;;;;5096995;28;20043;-86
2021/10/05 09:53:56;;;;;;;18.60;6.65;;;;;;;;;;5095326;28;20048;-84
2021/10/05 09:56:23;;;;;;;11.73;6.35;;;;;;;;;;5095696;28;20028;-81
2021/10/05 09:58:50;;;;;;;11.77;6.15;;;;;;;;;;5096791;28;20088;-86
2021/10/05 10:01:18;;;;;;;10.05;5.82;;;;;;;;;;5095640;28;20016;-82
2021/10/05 10:03:44;;;;;;;14.82;6.43;;;;;;;;;;5095510;28;20028;-79
2021/10/05 10:06:10;;;;;;;13.48;5.82;;;;;;;;;;5095580;28;20136;-86
2021/10/05 10:08:37;;;;;;;9.95;5.35;;;;;;;;;;5095147;28;20028;-87
2021/10/05 10:11:03;;;;;;;9.73;5.45;;;;;;;;;;5095308;28;20519;-79
2021/10/05 10:13:29;;;;;;;8.88;4.93;;;;;;;;;;5095242;28;20030;-83
2021/10/05 10:15:59;;;;;;;11.52;5.68;;;;;;;;;;5095363;28;20024;-81
2021/10/05 10:18:25;;;;;;;10.63;5.45;;;;;;;;;;5096617;28;20028;-83
2021/10/05 10:21:06;;;;;;;11.85;5.07;;;;;;;;;;5095214;28;20484;-89
2021/10/05 10:23:33;;;;;;;10.90;4.88;;;;;;;;;;5095087;28;20044;-79
2021/10/05 10:26:11;;;;;;;8.60;5.10;;;;;;;;;;5095019;28;20086;-82
2021/10/05 10:28:41;;;;;;;14.93;5.28;;;;;;;;;;5095038;28;20487;-88
2021/10/05 10:31:15;;;;;;;8.80;4.30;;;;;;;;;;5095937;28;20032;-90
2021/10/05 10:33:45;;;;;;;10.82;4.93;;;;;;;;;;5094626;28;20024;-79
2021/10/05 10:36:11;;;;;;;8.80;4.13;;;;;;;;;;5094342;28;20181;-82
2021/10/05 10:38:42;;;;;;;8.30;4.05;;;;;;;;;;5094634;28;20027;-87
2021/10/05 10:41:18;;;;;;;6.72;3.70;;;;;;;;;;5096452;28;20020;-84
2021/10/05 10:43:57;;;;;;;9.40;4.03;;;;;;;;;;5094944;28;20632;-86
2021/10/05 10:46:25;;;;;;;9.10;3.67;;;;;;;;;;5094744;28;20055;-79
2021/10/05 10:48:59;;;;;;;6.70;3.58;;;;;;;;;;5094479;28;20119;-79
2021/10/05 10:51:29;;;;;;;6.57;3.85;;;;;;;;;;5094144;28;20020;-86
2021/10/05 10:53:56;;;;;;;7.85;4.10;;;;;;;;;;5095662;28;20051;-83
2021/10/05 10:56:28;;;;;;;17.40;4.03;;;;;;;;;;5094594;28;20366;-85
2021/10/05 10:58:58;;;;;;;7.40;3.70;;;;;;;;;;5094223;28;20035;-84
2021/10/05 11:01:34;;;;;;;9.13;4.03;;;;;;;;;;5094263;28;20426;-79
2021/10/05 11:04:04;;;;;;;6.93;4.03;;;;;;;;;;5094004;28;20460;-79
2021/10/05 11:06:30;;;;;;;8.52;3.80;;;;;;;;;;5093865;28;20028;-79
2021/10/05 11:08:57;;;;;;;8.38;4.00;;;;;;;;;;5094540;28;20032;-83
2021/10/05 11:11:43;;;;;;;8.40;3.92;;;;;;;;;;5094314;28;20051;-79
2021/10/05 11:14:29;;;;;;;8.35;3.80;;;;;;;;;;5094512;28;20372;-87
2021/10/05 11:16:57;;;;;;;5.97;3.47;;;;;;;;;;5093798;28;20024;-80
2021/10/05 11:19:26;;;;;;;8.32;3.88;;;;;;;;;;5093719;28;20035;-86
2021/10/05 11:21:52;;;;;;;6.30;3.65;;;;;;;;;;5093395;28;20107;-90
2021/10/05 11:24:19;;;;;;;11.07;3.83;;;;;;;;;;5093666;28;20058;-80
2021/10/05 11:26:48;;;;;;;6.43;3.55;;;;;;;;;;5093699;28;20016;-93
2021/10/05 11:29:24;;;;;;;10.48;3.67;;;;;;;;;;5093813;28;20020;-89
2021/10/05 11:31:52;;;;;;;6.82;3.83;;;;;;;;;;5094392;28;20047;-80
2021/10/05 11:34:19;;;;;;;11.23;4.55;;;;;;;;;;5093853;28;20077;-80
2021/10/05 11:36:45;;;;;;;7.95;4.07;;;;;;;;;;5093388;28;20538;-79
2021/10/05 11:39:18;;;;;;;6.55;4.05;;;;;;;;;;5093859;28;20035;-89
2021/10/05 11:41:45;;;;;;;7.25;4.18;;;;;;;;;;5093909;28;20016;-80
2021/10/05 11:44:18;;;;;;;10.07;4.13;;;;;;;;;;5094265;28;20067;-86
2021/10/05 11:47:06;;;;;;;9.65;4.00;;;;;;;;;;5094580;28;20020;-79
2021/10/05 11:49:33;;;;;;;7.15;3.67;;;;;;;;;;5094471;28;20059;-83
2021/10/05 11:52:00;;;;;;;8.32;3.90;;;;;;;;;;5093210;28;20077;-79
2021/10/05 11:54:28;;;;;;;8.75;3.38;;;;;;;;;;5094142;28;20515;-81
2021/10/05 11:56:55;;;;;;;8.70;3.50;;;;;;;;;;5093156;28;20476;-84
2021/10/05 11:59:24;;;;;;;7.60;4.55;;;;;;;;;;5094444;28;20035;-78
2021/10/05 12:01:57;;;;;;;8.48;4.50;;;;;;;;;;5091496;28;20020;-88
2021/10/05 12:04:24;;;;;;;7.65;4.60;;;;;;;;;;5098005;28;20090;-84
2021/10/05 12:06:52;;;;;;;9.20;5.13;;;;;;;;;;5092847;28;20469;-80
2021/10/05 12:09:24;;;;;;;15.80;5.20;;;;;;;;;;5092210;28;20028;-79
2021/10/05 12:11:51;;;;;;;8.55;5.50;;;;;;;;;;5093088;28;20047;-80
2021/10/05 12:14:19;;;;;;;13.55;5.60;;;;;;;;;;5093343;28;20028;-82
2021/10/05 12:16:56;;;;;;;9.45;5.30;;;;;;;;;;5093945;28;20066;-79
2021/10/05 12:19:26;;;;;;;10.07;5.82;;;;;;;;;;5094034;28;20026;-83
2021/10/05 12:21:57;;;;;;;9.55;4.85;;;;;;;;;;5094030;28;20063;-79
2021/10/05 12:24:34;;;;;;;14.00;5.55;;;;;;;;;;5094030;28;20034;-84
2021/10/05 12:27:00;;;;;;;9.30;5.65;;;;;;;;;;5094088;28;20024;-79
2021/10/05 12:29:27;;;;;;;12.25;5.10;;;;;;;;;;5092928;28;20065;-81
2021/10/05 12:31:57;;;;;;;12.27;5.28;;;;;;;;;;5092615;28;20464;-82
2021/10/05 12:34:33;;;;;;;10.73;5.82;;;;;;;;;;5092845;28;20118;-87
2021/10/05 12:37:00;;;;;;;7.70;4.82;;;;;;;;;;5092775;28;20024;-78
2021/10/05 12:39:26;;;;;;;11.90;5.05;;;;;;;;;;5093685;28;20035;-78
2021/10/05 12:41:56;;;;;;;9.30;5.35;;;;;;;;;;5092541;28;20024;-78
2021/10/05 12:44:22;;;;;;;15.82;5.65;;;;;;;;;;5092355;28;20134;-78
2021/10/05 12:46:55;;;;;;;13.18;5.50;;;;;;;;;;5092383;28;20020;-80
2021/10/05 12:49:22;;;;;;;15.75;5.30;;;;;;;;;;5092362;28;20024;-81
2021/10/05 12:51:49;;;;;;;12.10;5.55;;;;;;;;;;5093583;28;20490;-78
2021/10/05 12:54:15;;;;;;;10.90;5.47;;;;;;;;;;5093187;28;20180;-78
2021/10/05 12:56:42;;;;;;;12.05;5.70;;;;;;;;;;5093627;28;20430;-78
2021/10/05 12:59:10;;;;;;;19.40;7.00;;;;;;;;;;5092462;28;20028;-78
2021/10/05 13:01:37;;;;;;;14.85;7.15;;;;;;;;;;5093841;28;20528;-78
2021/10/05 13:04:04;;;;;;;11.55;5.80;;;;;;;;;;5093286;28;20388;-78
2021/10/05 13:06:32;;;;;;;14.55;6.35;;;;;;;;;;5092401;28;20028;-79
2021/10/05 13:08:58;;;;;;;11.02;5.63;;;;;;;;;;5092344;28;20073;-79
2021/10/05 13:11:24;;;;;;;13.05;6.63;;;;;;;;;;5093298;28;20051;-84
2021/10/05 13:13:50;;;;;;;11.70;5.60;;;;;;;;;;5092144;28;20110;-79
2021/10/05 13:16:16;;;;;;;15.05;5.53;;;;;;;;;;5094874;28;20039;-82
2021/10/05 13:18:42;;;;;;;14.65;5.63;;;;;;;;;;5096262;28;20472;-78
2021/10/05 13:21:09;;;;;;;18.52;6.20;;;;;;;;;;5096312;28;20020;-80
2021/10/05 13:23:35;;;;;;;14.32;5.90;;;;;;;;;;5096220;28;20039;-78
2021/10/05 13:26:01;;;;;;;12.27;5.93;;;;;;;;;;5096035;28;20028;-79
2021/10/05 13:28:27;;;;;;;10.55;5.35;;;;;;;;;;5097432;28;20475;-85
2021/10/05 13:30:53;;;;;;;12.20;5.78;;;;;;;;;;5095929;28;20054;-78
2021/10/05 13:33:19;;;;;;;14.57;5.70;;;;;;;;;;5086992;28;20067;-79
2021/10/05 13:35:45;;;;;;;8.25;5.40;;;;;;;;;;5092477;28;20115;-79
2021/10/05 13:38:12;;;;;;;12.20;5.22;;;;;;;;;;5092746;28;20039;-85
2021/10/05 13:40:42;;;;;;;9.95;5.55;;;;;;;;;;5092568;28;20020;-79
2021/10/05 13:43:08;;;;;;;11.43;5.43;;;;;;;;;;5092394;28;20481;-80
2021/10/05 13:45:35;;;;;;;19.98;5.47;;;;;;;;;;5076866;28;20111;-83
2021/10/05 13:48:01;;;;;;;26.38;6.07;;;;;;;;;;5077327;28;20343;-80
2021/10/05 13:50:27;;;;;;;9.00;5.63;;;;;;;;;;5092601;28;20119;-87
2021/10/05 13:52:53;;;;;;;15.35;6.00;;;;;;;;;;5092769;28;20028;-79
2021/10/05 13:55:20;;;;;;;16.77;5.80;;;;;;;;;;5092836;28;20086;-93
2021/10/05 13:57:46;;;;;;;9.63;5.85;;;;;;;;;;5076506;28;20024;-78
2021/10/05 14:00:13;;;;;;;14.68;5.55;;;;;;;;;;5092627;28;20389;-79
2021/10/05 14:02:39;;;;;;;11.10;5.57;;;;;;;;;;5076365;28;20020;-94
2021/10/05 14:05:07;;;;;;;12.98;5.85;;;;;;;;;;5077066;28;20036;-91
2021/10/05 14:07:33;;;;;;;11.82;5.80;;;;;;;;;;5092084;28;20025;-79
2021/10/05 14:09:59;;;;;;;11.80;5.65;;;;;;;;;;5093374;28;20051;-94
2021/10/05 14:12:26;;;;;;;10.82;5.53;;;;;;;;;;5093711;28;20024;-95
2021/10/05 14:14:53;;;;;;;10.02;5.70;;;;;;;;;;5093006;28;20035;-78
2021/10/05 14:17:19;;;;;;;13.05;5.90;;;;;;;;;;5092296;28;20138;-80
2021/10/05 14:19:49;;;;;;;18.38;6.25;;;;;;;;;;5076479;28;20056;-79
2021/10/05 14:22:17;;;;;;;10.88;6.13;;;;;;;;;;5076471;28;20024;-95
2021/10/05 14:24:44;;;;;;;11.80;5.70;;;;;;;;;;5095364;28;20040;-79
2021/10/05 14:27:11;;;;;;;20.65;6.18;;;;;;;;;;5092083;28;20066;-79
2021/10/05 14:29:37;;;;;;;9.80;5.43;;;;;;;;;;5092098;28;20040;-92
2021/10/05 14:32:04;;;;;;;10.90;5.57;;;;;;;;;;5092060;28;20024;-93
2021/10/05 14:34:30;;;;;;;15.40;5.57;;;;;;;;;;5092170;28;20119;-91
2021/10/05 14:36:56;;;;;;;9.90;5.38;;;;;;;;;;5079080;28;20024;-92